sensor_id;sensor_type;location;lat;lon;timestamp;pressure;altitude;pressure_sealevel;temperature;humidity
27864;BME280;15980;51.092;13.916;2023-05-07T00:01:33;99044.41;;;9.14;100.00
27864;BME280;15980;51.092;13.916;2023-05-07T00:11:33;99031.03;;;9.21;99.42
27864;BME280;15980;51.092;13.916;2023-05-07T00:21:34;99026.38;;;9.13;99.90
27864;BME280;15980;51.092;13.916;2023-05-07T00:31:34;99030.22;;;9.21;98.74
27864;BME280;15980;51.092;13.916;2023-05-07T00:41:34;99039.09;;;9.26;98.53
27864;BME280;15980;51.092;13.916;2023-05-07T00:51:35;99038.09;;;9.39;96.26
27864;BME280;15980;51.092;13.916;2023-05-07T01:01:35;99032.47;;;9.36;96.44
27864;BME280;15980;51.092;13.916;2023-05-07T01:11:35;99033.72;;;9.47;95.89
27864;BME280;15980;51.092;13.916;2023-05-07T01:21:37;99033.75;;;9.38;95.58
27864;BME280;15980;51.092;13.916;2023-05-07T01:31:40;99043.09;;;9.29;95.88
27864;BME280;15980;51.092;13.916;2023-05-07T01:41:42;99044.69;;;9.47;94.79
27864;BME280;15980;51.092;13.916;2023-05-07T01:51:43;99041.34;;;9.24;95.05
27864;BME280;15980;51.092;13.916;2023-05-07T02:01:43;99049.06;;;9.05;96.72
27864;BME280;15980;51.092;13.916;2023-05-07T02:11:44;99050.00;;;8.74;99.20
27864;BME280;15980;51.092;13.916;2023-05-07T02:21:44;99052.56;;;8.71;100.00
27864;BME280;15980;51.092;13.916;2023-05-07T02:31:44;99059.19;;;8.78;100.00
27864;BME280;15980;51.092;13.916;2023-05-07T02:41:44;99057.88;;;8.67;100.00
27864;BME280;15980;51.092;13.916;2023-05-07T02:51:45;99071.34;;;8.64;100.00
27864;BME280;15980;51.092;13.916;2023-05-07T03:01:45;99064.34;;;8.32;100.00
27864;BME280;15980;51.092;13.916;2023-05-07T03:11:45;99076.34;;;8.22;100.00
27864;BME280;15980;51.092;13.916;2023-05-07T03:21:46;99058.00;;;8.23;100.00
27864;BME280;15980;51.092;13.916;2023-05-07T03:31:46;99079.53;;;8.15;100.00
27864;BME280;15980;51.092;13.916;2023-05-07T03:41:46;99080.56;;;8.28;100.00
27864;BME280;15980;51.092;13.916;2023-05-07T03:51:47;99083.13;;;8.25;100.00
27864;BME280;15980;51.092;13.916;2023-05-07T04:01:47;99079.75;;;8.28;100.00
27864;BME280;15980;51.092;13.916;2023-05-07T04:11:48;99081.13;;;8.16;100.00
27864;BME280;15980;51.092;13.916;2023-05-07T04:21:48;99095.13;;;8.15;100.00
27864;BME280;15980;51.092;13.916;2023-05-07T04:31:48;99092.22;;;8.11;100.00
27864;BME280;15980;51.092;13.916;2023-05-07T04:41:49;99101.84;;;8.09;100.00
27864;BME280;15980;51.092;13.916;2023-05-07T04:51:49;99123.97;;;8.61;100.00
27864;BME280;15980;51.092;13.916;2023-05-07T05:01:49;99124.34;;;8.76;100.00
27864;BME280;15980;51.092;13.916;2023-05-07T05:11:49;99143.84;;;8.84;99.74
27864;BME280;15980;51.092;13.916;2023-05-07T05:21:50;99142.88;;;8.88;97.92
27864;BME280;15980;51.092;13.916;2023-05-07T05:31:50;99152.38;;;8.91;97.00
27864;BME280;15980;51.092;13.916;2023-05-07T05:41:50;99165.84;;;8.70;98.53
27864;BME280;15980;51.092;13.916;2023-05-07T05:51:51;99167.66;;;8.83;96.62
27864;BME280;15980;51.092;13.916;2023-05-07T06:01:51;99163.16;;;8.78;98.13
27864;BME280;15980;51.092;13.916;2023-05-07T06:11:52;99184.94;;;9.01;98.13
27864;BME280;15980;51.092;13.916;2023-05-07T06:21:53;99198.47;;;8.66;97.10
27864;BME280;15980;51.092;13.916;2023-05-07T06:31:53;99201.84;;;8.63;98.62
27864;BME280;15980;51.092;13.916;2023-05-07T06:41:54;99202.97;;;9.02;93.88
27864;BME280;15980;51.092;13.916;2023-05-07T06:51:54;99208.09;;;9.86;89.49
27864;BME280;15980;51.092;13.916;2023-05-07T07:01:54;99224.69;;;10.16;87.15
27864;BME280;15980;51.092;13.916;2023-05-07T07:11:55;99229.03;;;10.17;85.62
27864;BME280;15980;51.092;13.916;2023-05-07T07:21:55;99225.53;;;9.99;85.71
27864;BME280;15980;51.092;13.916;2023-05-07T07:31:56;99233.41;;;10.09;84.44
27864;BME280;15980;51.092;13.916;2023-05-07T07:41:56;99245.03;;;10.32;82.28
27864;BME280;15980;51.092;13.916;2023-05-07T07:51:56;99243.56;;;10.17;82.99
27864;BME280;15980;51.092;13.916;2023-05-07T08:01:56;99254.50;;;10.60;81.41
27864;BME280;15980;51.092;13.916;2023-05-07T08:11:57;99249.47;;;10.71;79.99
27864;BME280;15980;51.092;13.916;2023-05-07T08:21:57;99261.00;;;10.21;82.53
27864;BME280;15980;51.092;13.916;2023-05-07T08:31:58;99267.09;;;10.53;80.72
27864;BME280;15980;51.092;13.916;2023-05-07T08:42:00;99272.13;;;11.06;80.22
27864;BME280;15980;51.092;13.916;2023-05-07T08:52:00;99275.59;;;10.86;77.83
27864;BME280;15980;51.092;13.916;2023-05-07T09:02:01;99296.59;;;11.28;75.97
27864;BME280;15980;51.092;13.916;2023-05-07T09:12:01;99281.69;;;11.38;77.82
27864;BME280;15980;51.092;13.916;2023-05-07T09:22:03;99308.72;;;11.27;75.12
27864;BME280;15980;51.092;13.916;2023-05-07T09:32:05;99315.94;;;10.94;77.23
27864;BME280;15980;51.092;13.916;2023-05-07T09:42:05;99310.63;;;11.27;76.00
27864;BME280;15980;51.092;13.916;2023-05-07T09:52:06;99307.72;;;11.61;73.58
27864;BME280;15980;51.092;13.916;2023-05-07T10:02:09;99320.91;;;12.27;71.07
27864;BME280;15980;51.092;13.916;2023-05-07T10:12:09;99308.59;;;11.15;72.88
27864;BME280;15980;51.092;13.916;2023-05-07T10:22:10;99308.97;;;13.22;68.30
27864;BME280;15980;51.092;13.916;2023-05-07T10:42:23;99300.97;;;14.18;63.61
27864;BME280;15980;51.092;13.916;2023-05-07T10:52:24;99296.50;;;14.82;62.01
27864;BME280;15980;51.092;13.916;2023-05-07T11:12:59;99298.94;;;14.03;63.74
27864;BME280;15980;51.092;13.916;2023-05-07T11:23:00;99293.69;;;14.66;61.25
27864;BME280;15980;51.092;13.916;2023-05-07T11:33:00;99287.44;;;15.44;55.94
27864;BME280;15980;51.092;13.916;2023-05-07T11:43:10;99294.75;;;13.44;65.79
27864;BME280;15980;51.092;13.916;2023-05-07T11:53:10;99301.84;;;13.70;63.96
27864;BME280;15980;51.092;13.916;2023-05-07T12:03:11;99307.94;;;13.75;64.17
27864;BME280;15980;51.092;13.916;2023-05-07T12:13:22;99315.50;;;13.17;64.43
27864;BME280;15980;51.092;13.916;2023-05-07T12:23:22;99305.75;;;14.45;61.78
27864;BME280;15980;51.092;13.916;2023-05-07T12:33:25;99314.06;;;15.64;57.90
27864;BME280;15980;51.092;13.916;2023-05-07T12:43:27;99330.78;;;16.22;53.80
27864;BME280;15980;51.092;13.916;2023-05-07T12:53:29;99328.00;;;15.08;56.79
27864;BME280;15980;51.092;13.916;2023-05-07T13:03:33;99319.81;;;15.59;56.66
27864;BME280;15980;51.092;13.916;2023-05-07T13:13:35;99321.47;;;14.85;58.34
27864;BME280;15980;51.092;13.916;2023-05-07T13:23:35;99326.31;;;15.51;54.83
27864;BME280;15980;51.092;13.916;2023-05-07T13:33:36;99317.88;;;15.76;55.14
27864;BME280;15980;51.092;13.916;2023-05-07T13:43:36;99326.19;;;15.00;57.84
27864;BME280;15980;51.092;13.916;2023-05-07T13:53:36;99321.94;;;14.07;61.03
27864;BME280;15980;51.092;13.916;2023-05-07T14:03:36;99326.81;;;14.94;57.46
27864;BME280;15980;51.092;13.916;2023-05-07T14:13:37;99328.06;;;14.28;58.57
27864;BME280;15980;51.092;13.916;2023-05-07T14:23:37;99317.84;;;14.29;59.96
27864;BME280;15980;51.092;13.916;2023-05-07T14:33:37;99306.97;;;15.20;58.07
27864;BME280;15980;51.092;13.916;2023-05-07T14:43:38;99302.59;;;15.03;57.83
27864;BME280;15980;51.092;13.916;2023-05-07T14:53:38;99304.56;;;15.81;56.95
27864;BME280;15980;51.092;13.916;2023-05-07T15:03:39;99308.28;;;14.94;57.31
27864;BME280;15980;51.092;13.916;2023-05-07T15:13:41;99314.44;;;15.03;57.24
27864;BME280;15980;51.092;13.916;2023-05-07T15:23:42;99321.66;;;14.92;59.41
27864;BME280;15980;51.092;13.916;2023-05-07T15:33:42;99323.13;;;13.69;62.69
27864;BME280;15980;51.092;13.916;2023-05-07T15:43:48;99321.38;;;14.01;60.93
27864;BME280;15980;51.092;13.916;2023-05-07T15:53:49;99341.25;;;13.82;62.06
27864;BME280;15980;51.092;13.916;2023-05-07T16:03:49;99332.31;;;13.73;61.63
27864;BME280;15980;51.092;13.916;2023-05-07T16:13:49;99331.38;;;13.81;62.15
27864;BME280;15980;51.092;13.916;2023-05-07T16:23:50;99340.81;;;13.56;62.57
27864;BME280;15980;51.092;13.916;2023-05-07T16:33:50;99336.06;;;13.32;61.40
27864;BME280;15980;51.092;13.916;2023-05-07T16:43:50;99346.00;;;13.12;62.66
27864;BME280;15980;51.092;13.916;2023-05-07T16:53:50;99362.06;;;12.23;65.13
27864;BME280;15980;51.092;13.916;2023-05-07T17:03:51;99375.25;;;12.51;64.41
27864;BME280;15980;51.092;13.916;2023-05-07T17:13:51;99373.97;;;12.48;64.12
27864;BME280;15980;51.092;13.916;2023-05-07T17:23:51;99378.63;;;11.85;65.25
27864;BME280;15980;51.092;13.916;2023-05-07T17:33:52;99380.38;;;11.52;66.42
27864;BME280;15980;51.092;13.916;2023-05-07T17:43:52;99388.63;;;10.62;68.82
27864;BME280;15980;51.092;13.916;2023-05-07T17:53:52;99384.75;;;10.28;69.85
27864;BME280;15980;51.092;13.916;2023-05-07T18:03:52;99379.44;;;9.75;72.01
27864;BME280;15980;51.092;13.916;2023-05-07T18:13:53;99389.09;;;9.64;73.01
27864;BME280;15980;51.092;13.916;2023-05-07T18:23:53;99383.19;;;9.39;74.44
27864;BME280;15980;51.092;13.916;2023-05-07T18:33:53;99397.78;;;9.26;74.68
27864;BME280;15980;51.092;13.916;2023-05-07T18:43:54;99407.53;;;8.88;76.11
27864;BME280;15980;51.092;13.916;2023-05-07T18:53:54;99412.97;;;8.65;77.07
27864;BME280;15980;51.092;13.916;2023-05-07T19:03:54;99427.03;;;8.50;77.91
27864;BME280;15980;51.092;13.916;2023-05-07T19:13:55;99428.69;;;8.37;78.60
27864;BME280;15980;51.092;13.916;2023-05-07T19:23:55;99434.25;;;8.18;79.40
27864;BME280;15980;51.092;13.916;2023-05-07T19:33:56;99448.63;;;8.10;80.06
27864;BME280;15980;51.092;13.916;2023-05-07T19:43:56;99440.25;;;7.93;80.72
27864;BME280;15980;51.092;13.916;2023-05-07T19:53:57;99463.13;;;7.83;80.50
27864;BME280;15980;51.092;13.916;2023-05-07T20:03:58;99466.84;;;7.74;81.13
27864;BME280;15980;51.092;13.916;2023-05-07T20:13:58;99477.66;;;7.65;80.20
27864;BME280;15980;51.092;13.916;2023-05-07T20:23:59;99496.47;;;7.53;79.67
27864;BME280;15980;51.092;13.916;2023-05-07T20:33:59;99496.06;;;7.46;79.06
27864;BME280;15980;51.092;13.916;2023-05-07T20:43:59;99503.28;;;7.37;78.83
27864;BME280;15980;51.092;13.916;2023-05-07T20:53:59;99518.72;;;7.28;78.94
27864;BME280;15980;51.092;13.916;2023-05-07T21:04:02;99517.38;;;7.11;79.23
27864;BME280;15980;51.092;13.916;2023-05-07T21:14:03;99526.84;;;7.00;80.05
27864;BME280;15980;51.092;13.916;2023-05-07T21:24:04;99526.16;;;6.89;80.58
27864;BME280;15980;51.092;13.916;2023-05-07T21:34:04;99535.75;;;6.68;81.04
27864;BME280;15980;51.092;13.916;2023-05-07T21:44:05;99531.84;;;6.55;81.11
27864;BME280;15980;51.092;13.916;2023-05-07T21:54:05;99546.47;;;6.41;82.46
27864;BME280;15980;51.092;13.916;2023-05-07T22:04:05;99551.34;;;6.20;82.49
27864;BME280;15980;51.092;13.916;2023-05-07T22:14:06;99550.66;;;6.09;82.95
27864;BME280;15980;51.092;13.916;2023-05-07T22:24:06;99549.84;;;6.09;83.29
27864;BME280;15980;51.092;13.916;2023-05-07T22:34:06;99537.91;;;6.28;83.45
27864;BME280;15980;51.092;13.916;2023-05-07T22:44:06;99544.38;;;6.56;82.01
27864;BME280;15980;51.092;13.916;2023-05-07T22:54:07;99539.06;;;6.84;81.61
27864;BME280;15980;51.092;13.916;2023-05-07T23:04:07;99546.44;;;6.65;81.01
27864;BME280;15980;51.092;13.916;2023-05-07T23:14:07;99548.88;;;6.66;81.98
27864;BME280;15980;51.092;13.916;2023-05-07T23:24:08;99537.56;;;6.91;81.57
27864;BME280;15980;51.092;13.916;2023-05-07T23:34:08;99529.91;;;7.12;81.05
27864;BME280;15980;51.092;13.916;2023-05-07T23:44:08;99533.88;;;7.20;80.65
27864;BME280;15980;51.092;13.916;2023-05-07T23:54:08;99532.34;;;7.14;80.34
